Time;durP1;ratioP1;P1;durP2;ratioP2;P2;SDS_P1;SDS_P2;PMS_P1;PMS_P2;Temp;Humidity;BMP_temperature;BMP_pressure;BME280_temperature;BME280_humidity;BME280_pressure;Samples;Min_cycle;Max_cycle;Signal;HPM_P1;HPM_P2
2022/06/29 00:00:15;;;;;;;0.22;0.22;;;15.40;99.90;;;;;;4859001;29;20094;-82
2022/06/29 00:02:42;;;;;;;0.73;0.60;;;15.40;99.90;;;;;;4878825;29;20127;-82
2022/06/29 00:05:08;;;;;;;0.20;0.20;;;15.50;99.90;;;;;;4860930;29;20077;-82
2022/06/29 00:07:34;;;;;;;0.10;0.10;;;15.50;99.90;;;;;;4870066;29;20052;-85
2022/06/29 00:10:00;;;;;;;0.10;0.10;;;15.50;99.90;;;;;;4877787;29;20407;-85
2022/06/29 00:12:25;;;;;;;1.23;1.23;;;15.50;99.90;;;;;;4879366;29;20040;-85
2022/06/29 00:14:51;;;;;;;0.08;0.08;;;15.40;99.90;;;;;;4877771;29;20032;-85
2022/06/29 00:17:17;;;;;;;2.75;0.38;;;15.40;99.90;;;;;;4878476;29;20037;-85
2022/06/29 00:19:43;;;;;;;0.00;0.00;;;15.30;99.90;;;;;;4863359;29;20041;-85
2022/06/29 00:22:09;;;;;;;0.40;0.40;;;15.30;99.90;;;;;;4877599;29;20089;-85
2022/06/29 00:24:35;;;;;;;0.10;0.10;;;15.20;99.90;;;;;;4878135;29;20070;-84
2022/06/29 00:27:02;;;;;;;0.20;0.20;;;15.10;99.90;;;;;;4876545;29;20045;-84
2022/06/29 00:29:28;;;;;;;0.05;0.05;;;15.00;99.90;;;;;;4878292;29;20105;-84
2022/06/29 00:31:54;;;;;;;0.00;0.00;;;15.00;99.90;;;;;;4878579;29;20056;-84
2022/06/29 00:34:19;;;;;;;0.20;0.20;;;14.80;99.90;;;;;;4878997;29;20045;-84
2022/06/29 00:36:46;;;;;;;0.00;0.00;;;14.70;99.90;;;;;;4863771;29;20404;-84
2022/06/29 00:39:11;;;;;;;0.00;0.00;;;14.60;99.90;;;;;;4863167;29;20045;-84
2022/06/29 00:41:43;;;;;;;0.43;0.30;;;14.50;99.90;;;;;;4863721;29;20040;-84
2022/06/29 00:44:13;;;;;;;0.00;0.00;;;14.40;99.90;;;;;;4879319;29;20053;-84
2022/06/29 00:46:50;;;;;;;0.10;0.10;;;14.30;99.90;;;;;;4863360;29;20579;-84
2022/06/29 00:49:17;;;;;;;0.10;0.10;;;14.20;99.90;;;;;;4878397;29;20441;-84
2022/06/29 00:51:46;;;;;;;0.00;0.00;;;14.10;99.90;;;;;;4862945;29;20037;-84
2022/06/29 00:54:20;;;;;;;0.28;0.28;;;14.00;99.90;;;;;;4863450;29;20048;-84
2022/06/29 00:56:46;;;;;;;0.05;0.05;;;14.00;99.90;;;;;;4878656;29;20052;-85
2022/06/29 00:59:17;;;;;;;0.10;0.10;;;14.00;99.90;;;;;;4877716;29;20448;-85
2022/06/29 01:01:43;;;;;;;0.57;0.35;;;14.00;99.90;;;;;;4877066;29;20056;-85
2022/06/29 01:04:10;;;;;;;0.75;0.75;;;14.00;99.90;;;;;;4878660;29;20086;-85
2022/06/29 01:06:36;;;;;;;0.00;0.00;;;14.00;99.90;;;;;;4863322;29;20496;-85
2022/06/29 01:09:03;;;;;;;0.08;0.08;;;14.00;99.90;;;;;;4862151;29;20045;-85
2022/06/29 01:11:29;;;;;;;0.17;0.10;;;14.00;99.90;;;;;;4874191;29;20392;-85
2022/06/29 01:13:55;;;;;;;0.20;0.10;;;13.90;99.90;;;;;;4858117;29;20048;-85
2022/06/29 01:16:21;;;;;;;0.10;0.10;;;13.80;99.90;;;;;;4878654;29;20055;-85
2022/06/29 01:18:47;;;;;;;0.00;0.00;;;13.70;99.90;;;;;;4859462;29;20049;-85
2022/06/29 01:21:13;;;;;;;0.20;0.20;;;13.70;99.90;;;;;;4876756;29;20056;-85
2022/06/29 01:23:39;;;;;;;0.03;0.03;;;13.60;99.90;;;;;;4876822;29;20045;-85
2022/06/29 01:26:06;;;;;;;0.20;0.20;;;13.50;99.90;;;;;;4877529;29;20401;-85
2022/06/29 01:28:32;;;;;;;0.00;0.00;;;13.50;99.90;;;;;;4860349;29;20560;-85
2022/06/29 01:30:58;;;;;;;0.10;0.10;;;13.40;99.90;;;;;;4878003;29;20475;-82
2022/06/29 01:33:24;;;;;;;0.00;0.00;;;13.40;99.90;;;;;;4845075;29;20434;-82
2022/06/29 01:35:50;;;;;;;0.00;0.00;;;13.40;99.90;;;;;;4862620;29;20044;-82
2022/06/29 01:38:19;;;;;;;0.20;0.20;;;13.40;99.90;;;;;;4878163;29;20060;-82
2022/06/29 01:40:45;;;;;;;0.00;0.00;;;13.40;99.90;;;;;;4877519;29;20402;-82
2022/06/29 01:43:11;;;;;;;0.00;0.00;;;13.30;99.90;;;;;;4876525;29;20638;-82
2022/06/29 01:45:37;;;;;;;0.10;0.10;;;13.30;99.90;;;;;;4877209;29;20088;-82
2022/06/29 01:48:04;;;;;;;0.30;0.30;;;13.30;99.90;;;;;;4862054;29;20045;-83
2022/06/29 01:50:30;;;;;;;0.05;0.05;;;13.20;99.90;;;;;;4861313;29;20073;-83
2022/06/29 01:52:56;;;;;;;0.00;0.00;;;13.20;99.90;;;;;;4862617;29;20069;-83
2022/06/29 01:55:21;;;;;;;0.40;0.40;;;13.20;99.90;;;;;;4862483;29;20041;-83
2022/06/29 01:57:47;;;;;;;0.00;0.00;;;13.20;99.90;;;;;;4867232;29;20049;-83
2022/06/29 02:00:14;;;;;;;0.15;0.15;;;13.20;99.90;;;;;;4869602;29;20646;-83
2022/06/29 02:02:39;;;;;;;0.10;0.10;;;13.30;99.90;;;;;;4878345;29;20045;-85
2022/06/29 02:05:06;;;;;;;0.10;0.10;;;13.40;99.90;;;;;;4862549;29;20052;-85
2022/06/29 02:07:31;;;;;;;0.05;0.05;;;13.40;99.90;;;;;;4868981;29;20049;-85
2022/06/29 02:09:57;;;;;;;0.00;0.00;;;13.50;99.90;;;;;;4876734;29;20396;-85
2022/06/29 02:12:23;;;;;;;0.20;0.20;;;13.60;99.90;;;;;;4857648;29;20041;-85
2022/06/29 02:14:48;;;;;;;0.13;0.13;;;13.70;99.90;;;;;;4848882;29;20047;-85
2022/06/29 02:17:14;;;;;;;0.10;0.10;;;13.80;99.90;;;;;;4882217;29;20073;-85
2022/06/29 02:19:40;;;;;;;0.00;0.00;;;13.90;99.90;;;;;;4866711;29;20060;-85
2022/06/29 02:22:05;;;;;;;0.20;0.20;;;14.00;99.90;;;;;;4866327;29;20093;-85
2022/06/29 02:24:31;;;;;;;0.35;0.28;;;14.10;99.90;;;;;;4881399;29;20053;-85
2022/06/29 02:26:57;;;;;;;0.20;0.20;;;14.20;99.90;;;;;;4882274;29;20049;-85
2022/06/29 02:29:23;;;;;;;0.10;0.10;;;14.30;99.90;;;;;;4881812;29;20121;-85
2022/06/29 02:34:44;;;;;;;0.63;0.63;;;14.30;99.90;;;;;;4864944;29;20045;-85
2022/06/29 02:37:11;;;;;;;0.10;0.10;;;14.40;99.90;;;;;;4881400;29;20072;-85
2022/06/29 02:39:38;;;;;;;0.20;0.10;;;14.40;99.90;;;;;;4866764;29;20052;-85
2022/06/29 02:42:05;;;;;;;0.10;0.10;;;14.50;99.90;;;;;;4867028;29;20127;-85
2022/06/29 02:44:31;;;;;;;0.20;0.15;;;14.50;99.90;;;;;;4866090;29;20045;-85
2022/06/29 02:46:57;;;;;;;0.47;0.40;;;14.50;99.90;;;;;;4866191;29;20113;-85
2022/06/29 02:49:22;;;;;;;0.10;0.10;;;14.50;99.90;;;;;;4866497;29;20072;-85
2022/06/29 02:51:48;;;;;;;0.00;0.00;;;14.60;99.90;;;;;;4863068;29;20130;-85
2022/06/29 02:54:14;;;;;;;0.30;0.30;;;14.60;99.90;;;;;;4862971;29;20050;-82
2022/06/29 02:56:40;;;;;;;0.10;0.10;;;14.60;99.90;;;;;;4882456;29;20045;-82
2022/06/29 02:59:05;;;;;;;0.08;0.08;;;14.60;99.90;;;;;;4848052;29;20076;-82
2022/06/29 03:01:31;;;;;;;0.32;0.32;;;14.60;99.90;;;;;;4860258;29;20044;-82
2022/06/29 03:03:57;;;;;;;0.17;0.17;;;14.60;99.90;;;;;;4865227;29;20045;-82
2022/06/29 03:06:22;;;;;;;0.05;0.05;;;14.60;99.90;;;;;;4865915;29;20037;-82
2022/06/29 03:08:48;;;;;;;0.10;0.10;;;14.60;99.90;;;;;;4865198;29;20096;-82
2022/06/29 03:11:14;;;;;;;3.83;2.13;;;14.50;99.90;;;;;;4864703;29;20045;-83
2022/06/29 03:13:40;;;;;;;0.20;0.20;;;14.50;99.90;;;;;;4864730;29;20037;-83
2022/06/29 03:16:05;;;;;;;2.13;2.03;;;14.50;99.90;;;;;;4865055;29;20045;-83
2022/06/29 03:18:31;;;;;;;0.20;0.20;;;14.50;99.90;;;;;;4872283;29;20192;-83
2022/06/29 03:20:57;;;;;;;0.03;0.03;;;14.40;99.90;;;;;;4874161;29;20967;-83
2022/06/29 03:23:22;;;;;;;0.15;0.15;;;14.40;99.90;;;;;;4865302;29;20146;-83
2022/06/29 03:25:48;;;;;;;0.17;0.17;;;14.30;99.90;;;;;;4848743;29;20480;-83
2022/06/29 03:28:14;;;;;;;0.13;0.13;;;14.30;99.90;;;;;;4896058;23;20072;-84
2022/06/29 03:30:39;;;;;;;0.00;0.00;;;14.20;99.90;;;;;;4883123;29;20059;-83
2022/06/29 03:33:05;;;;;;;0.22;0.22;;;14.20;99.90;;;;;;4882642;29;20447;-83
2022/06/29 03:35:31;;;;;;;0.20;0.20;;;14.10;99.90;;;;;;4894048;29;20135;-83
2022/06/29 03:37:56;;;;;;;0.00;0.00;;;14.10;99.90;;;;;;4852552;29;20071;-83
2022/06/29 03:40:22;;;;;;;0.10;0.10;;;14.10;99.90;;;;;;4880058;29;20041;-83
2022/06/29 03:42:48;;;;;;;0.10;0.10;;;14.10;99.90;;;;;;4898566;29;20046;-81
2022/06/29 03:45:13;;;;;;;0.15;0.15;;;14.10;99.90;;;;;;4895542;29;20048;-81
2022/06/29 03:47:39;;;;;;;0.10;0.10;;;14.10;99.90;;;;;;4887609;29;20076;-81
2022/06/29 03:50:08;;;;;;;0.10;0.10;;;14.00;99.90;;;;;;4898389;29;20493;-81
2022/06/29 03:52:34;;;;;;;0.10;0.10;;;14.00;99.90;;;;;;4897816;29;20076;-81
2022/06/29 03:55:00;;;;;;;0.00;0.00;;;14.00;99.90;;;;;;4897955;29;20436;-81
2022/06/29 03:57:26;;;;;;;0.10;0.10;;;14.00;99.90;;;;;;4898427;29;20036;-81
2022/06/29 03:59:51;;;;;;;0.00;0.00;;;14.00;99.90;;;;;;4894835;29;20047;-81
2022/06/29 04:02:17;;;;;;;0.08;0.08;;;14.00;99.90;;;;;;4894997;29;20067;-81
2022/06/29 04:04:43;;;;;;;0.10;0.10;;;14.10;99.90;;;;;;4882833;29;20135;-81
2022/06/29 04:07:09;;;;;;;0.10;0.10;;;14.10;99.90;;;;;;4881456;29;20531;-81
2022/06/29 04:09:34;;;;;;;0.00;0.00;;;14.10;99.90;;;;;;4891702;29;20045;-81
2022/06/29 04:12:00;;;;;;;0.10;0.10;;;14.10;99.90;;;;;;4868812;29;20076;-81
2022/06/29 04:14:28;;;;;;;0.10;0.10;;;14.10;99.90;;;;;;4899019;29;20044;-81
2022/06/29 04:16:55;;;;;;;0.20;0.20;;;14.20;99.90;;;;;;4882830;29;20394;-83
2022/06/29 04:19:21;;;;;;;0.30;0.30;;;14.30;99.90;;;;;;4879452;29;20506;-83
2022/06/29 04:21:48;;;;;;;0.00;0.00;;;14.40;99.90;;;;;;4889410;29;20048;-83
2022/06/29 04:24:14;;;;;;;1.25;0.22;;;14.50;99.90;;;;;;4882482;29;20045;-83
2022/06/29 04:26:40;;;;;;;0.20;0.20;;;14.60;99.90;;;;;;4898559;29;20049;-83
2022/06/29 04:29:06;;;;;;;0.00;0.00;;;14.60;99.90;;;;;;4898058;29;20056;-83
2022/06/29 04:31:33;;;;;;;0.20;0.20;;;14.80;99.90;;;;;;4897876;29;20123;-83
2022/06/29 04:33:59;;;;;;;0.20;0.20;;;14.90;99.90;;;;;;4882759;29;20515;-82
2022/06/29 04:36:26;;;;;;;0.00;0.00;;;14.90;99.90;;;;;;4898317;29;20563;-82
2022/06/29 04:38:53;;;;;;;0.20;0.20;;;15.00;99.90;;;;;;4898249;29;20049;-82
2022/06/29 04:41:19;;;;;;;0.52;0.52;;;15.10;99.90;;;;;;4897352;29;20053;-82
2022/06/29 04:43:46;;;;;;;0.10;0.10;;;15.20;99.90;;;;;;4897709;29;20048;-82
2022/06/29 04:46:21;;;;;;;0.20;0.20;;;15.20;99.90;;;;;;4898146;29;20100;-82
2022/06/29 04:48:59;;;;;;;0.75;0.35;;;15.30;99.90;;;;;;4913491;29;20131;-82
2022/06/29 04:51:26;;;;;;;0.03;0.03;;;15.40;99.90;;;;;;4897006;29;20047;-83
2022/06/29 04:53:56;;;;;;;0.10;0.10;;;15.50;99.90;;;;;;4891750;29;20045;-83
2022/06/29 04:56:23;;;;;;;0.30;0.30;;;15.60;99.90;;;;;;4889453;29;20131;-83
2022/06/29 04:58:51;;;;;;;0.35;0.35;;;15.70;99.90;;;;;;4882250;29;20041;-83
2022/06/29 05:01:18;;;;;;;0.82;0.52;;;15.80;99.90;;;;;;4878160;29;20047;-83
2022/06/29 05:03:44;;;;;;;0.55;0.32;;;15.80;99.90;;;;;;4881204;29;20049;-83
2022/06/29 05:06:10;;;;;;;0.28;0.28;;;15.90;99.90;;;;;;4897333;29;20088;-82
2022/06/29 05:08:35;;;;;;;0.22;0.22;;;16.00;99.90;;;;;;4897725;29;20044;-82
2022/06/29 05:11:01;;;;;;;0.20;0.20;;;16.10;99.90;;;;;;4879342;29;20048;-82
2022/06/29 05:13:27;;;;;;;0.25;0.25;;;16.20;99.90;;;;;;4882249;29;20048;-82
2022/06/29 05:15:53;;;;;;;1.55;1.35;;;16.30;99.90;;;;;;4897306;29;20036;-82
2022/06/29 05:18:19;;;;;;;0.70;0.47;;;16.40;99.90;;;;;;4879226;29;20108;-82
2022/06/29 05:20:44;;;;;;;0.40;0.40;;;16.40;99.90;;;;;;4856684;29;20064;-82
2022/06/29 05:23:11;;;;;;;0.30;0.22;;;16.70;99.90;;;;;;4864630;29;20052;-81
2022/06/29 05:25:37;;;;;;;0.20;0.20;;;16.50;99.90;;;;;;4885970;29;20428;-81
2022/06/29 05:28:03;;;;;;;0.70;0.40;;;16.60;99.90;;;;;;4897019;29;20037;-81
2022/06/29 05:30:29;;;;;;;0.47;0.47;;;16.60;99.90;;;;;;4897563;29;20427;-81
2022/06/29 05:32:55;;;;;;;0.25;0.25;;;16.70;99.90;;;;;;4878481;29;20124;-81
2022/06/29 05:35:29;;;;;;;0.28;0.28;;;16.70;99.90;;;;;;4878997;29;20045;-81
2022/06/29 05:38:18;;;;;;;0.50;0.50;;;17.20;99.90;;;;;;4879446;29;20049;-81
2022/06/29 05:44:47;;;;;;;0.10;0.10;;;18.50;99.90;;;;;;4826578;29;20473;-83
2022/06/29 05:59:07;;;;;;;0.05;0.05;;;22.60;99.90;;;;;;4754027;30;20418;-83
2022/06/29 06:09:27;;;;;;;0.08;0.08;;;24.10;99.90;;;;;;4818421;29;20112;-84
2022/06/29 06:11:54;;;;;;;0.57;0.57;;;25.10;98.70;;;;;;4867112;29;20437;-85
2022/06/29 06:14:20;;;;;;;0.98;0.45;;;25.30;97.90;;;;;;4900493;29;20048;-82
2022/06/29 06:16:46;;;;;;;1.10;0.38;;;25.50;97.50;;;;;;4885417;29;20120;-82
2022/06/29 06:19:11;;;;;;;0.15;0.15;;;25.60;96.80;;;;;;4900520;29;20472;-81
2022/06/29 06:21:37;;;;;;;0.47;0.47;;;25.80;96.10;;;;;;4900381;29;20052;-82
2022/06/29 06:24:04;;;;;;;0.40;0.40;;;26.00;95.20;;;;;;4900704;29;20088;-82
2022/06/29 06:26:31;;;;;;;0.10;0.10;;;26.40;95.40;;;;;;4884879;29;20365;-82
2022/06/29 06:28:57;;;;;;;0.10;0.10;;;26.60;94.10;;;;;;4883692;29;20095;-82
2022/06/29 06:31:25;;;;;;;0.20;0.20;;;26.90;94.30;;;;;;4879690;29;20033;-85
2022/06/29 06:33:51;;;;;;;0.10;0.10;;;26.90;93.80;;;;;;4882805;29;20341;-84
2022/06/29 06:36:17;;;;;;;1.10;0.52;;;27.20;93.10;;;;;;4884190;29;20104;-85
2022/06/29 06:38:43;;;;;;;0.10;0.10;;;27.20;92.70;;;;;;4872044;29;20049;-84
2022/06/29 06:41:22;;;;;;;0.10;0.10;;;27.60;92.80;;;;;;4900011;29;20084;-85
2022/06/29 06:43:58;;;;;;;0.30;0.30;;;27.90;91.70;;;;;;4886148;29;20083;-85
2022/06/29 06:46:25;;;;;;;1.05;0.88;;;28.40;91.00;;;;;;4900124;29;20403;-85
2022/06/29 06:48:52;;;;;;;7.47;1.33;;;28.30;91.10;;;;;;4883726;29;20068;-85
2022/06/29 06:51:20;;;;;;;0.00;0.00;;;28.40;91.30;;;;;;4873892;29;20124;-84
2022/06/29 06:53:46;;;;;;;0.10;0.10;;;28.70;90.20;;;;;;4899910;29;20044;-85
2022/06/29 06:56:13;;;;;;;0.45;0.45;;;28.70;89.60;;;;;;4899933;29;20048;-85
2022/06/29 06:58:39;;;;;;;0.20;0.20;;;28.80;90.00;;;;;;4899285;29;20463;-82
2022/06/29 07:01:06;;;;;;;0.10;0.10;;;28.90;87.70;;;;;;4897609;29;20064;-85
2022/06/29 07:03:32;;;;;;;0.38;0.38;;;29.30;86.30;;;;;;4899693;29;20499;-85
2022/06/29 07:06:00;;;;;;;0.95;0.95;;;29.50;86.10;;;;;;4898981;29;20045;-85
2022/06/29 07:08:27;;;;;;;0.17;0.17;;;29.60;84.90;;;;;;4898087;29;20391;-85
2022/06/29 07:10:53;;;;;;;0.10;0.10;;;30.00;81.00;;;;;;4899604;29;20048;-85
2022/06/29 07:13:19;;;;;;;0.17;0.17;;;29.80;81.00;;;;;;4881642;29;20079;-85
2022/06/29 07:15:45;;;;;;;0.40;0.35;;;29.70;80.60;;;;;;4851821;29;20076;-85
2022/06/29 07:18:10;;;;;;;0.20;0.20;;;29.70;79.70;;;;;;4899271;29;20036;-85
2022/06/29 07:20:36;;;;;;;0.30;0.30;;;29.50;80.10;;;;;;4884164;29;20487;-85
2022/06/29 07:23:02;;;;;;;0.10;0.10;;;29.50;80.50;;;;;;4883529;29;20044;-85
2022/06/29 07:25:27;;;;;;;0.17;0.17;;;29.70;79.50;;;;;;4883620;29;20048;-85
2022/06/29 07:27:53;;;;;;;0.28;0.28;;;30.10;79.00;;;;;;4899352;29;20048;-85
2022/06/29 07:30:19;;;;;;;0.63;0.63;;;30.20;79.60;;;;;;4898275;29;20212;-85
2022/06/29 07:32:44;;;;;;;0.13;0.13;;;30.30;78.40;;;;;;4875199;29;20037;-85
2022/06/29 07:35:10;;;;;;;0.57;0.57;;;30.60;78.80;;;;;;4880366;29;20088;-84
2022/06/29 07:37:36;;;;;;;0.20;0.20;;;30.40;76.50;;;;;;4880359;29;20041;-84
2022/06/29 07:40:02;;;;;;;0.20;0.20;;;30.50;76.90;;;;;;4891403;29;20475;-85
2022/06/29 07:42:28;;;;;;;0.30;0.30;;;30.50;77.80;;;;;;4879357;29;20045;-84
2022/06/29 07:44:53;;;;;;;0.20;0.20;;;30.50;76.50;;;;;;4895554;29;20048;-84
2022/06/29 07:47:19;;;;;;;0.10;0.10;;;30.50;74.90;;;;;;4880338;29;20072;-84
2022/06/29 07:49:45;;;;;;;0.20;0.20;;;30.70;78.40;;;;;;4883019;29;20043;-84
2022/06/29 07:52:10;;;;;;;0.20;0.20;;;31.10;77.30;;;;;;4897064;29;20037;-85
2022/06/29 07:54:36;;;;;;;0.73;0.73;;;31.40;76.20;;;;;;4883076;29;20041;-82
2022/06/29 07:57:02;;;;;;;0.20;0.20;;;31.50;72.90;;;;;;4879952;29;20045;-83
2022/06/29 07:59:27;;;;;;;0.10;0.10;;;31.40;72.80;;;;;;4880537;29;20057;-82
2022/06/29 08:01:53;;;;;;;0.55;0.55;;;31.20;72.80;;;;;;4849409;29;20148;-82
2022/06/29 08:04:19;;;;;;;0.00;0.00;;;31.30;73.60;;;;;;4880534;29;20052;-82
2022/06/29 08:06:45;;;;;;;0.17;0.17;;;31.80;77.00;;;;;;4891970;29;20484;-82
2022/06/29 08:09:10;;;;;;;0.28;0.28;;;32.20;73.40;;;;;;4880842;29;20092;-82
2022/06/29 08:11:36;;;;;;;0.40;0.40;;;32.30;72.60;;;;;;4883062;29;20565;-82
2022/06/29 08:14:02;;;;;;;0.10;0.10;;;32.20;73.00;;;;;;4893729;29;20037;-82
2022/06/29 08:16:27;;;;;;;0.10;0.10;;;32.30;72.70;;;;;;4869262;29;20128;-82
2022/06/29 08:18:53;;;;;;;0.38;0.38;;;32.50;72.10;;;;;;4882724;29;20475;-83
2022/06/29 08:21:19;;;;;;;0.10;0.10;;;32.60;71.20;;;;;;4882741;29;20108;-83
2022/06/29 08:23:44;;;;;;;0.82;0.82;;;32.60;71.80;;;;;;4895439;29;20052;-83
2022/06/29 08:26:10;;;;;;;0.32;0.32;;;32.50;70.60;;;;;;4864390;29;20047;-84
2022/06/29 08:28:36;;;;;;;0.20;0.20;;;32.70;71.60;;;;;;4879259;29;20053;-84
2022/06/29 08:31:02;;;;;;;0.30;0.30;;;33.20;71.80;;;;;;4893685;29;20048;-85
2022/06/29 08:33:27;;;;;;;0.40;0.40;;;33.70;71.10;;;;;;4882094;29;20407;-85
2022/06/29 08:35:53;;;;;;;0.30;0.30;;;34.30;71.50;;;;;;4882282;29;20044;-86
2022/06/29 08:38:19;;;;;;;0.52;0.52;;;34.80;70.10;;;;;;4882497;29;20412;-86
2022/06/29 08:40:47;;;;;;;0.20;0.20;;;35.40;71.20;;;;;;4881568;29;20049;-86
2022/06/29 08:43:15;;;;;;;0.60;0.15;;;35.70;69.00;;;;;;4879834;29;20194;-84
2022/06/29 08:45:45;;;;;;;0.40;0.40;;;35.50;66.60;;;;;;4869976;29;20403;-84
2022/06/29 08:48:12;;;;;;;0.10;0.10;;;35.20;66.70;;;;;;4910286;29;20048;-84
2022/06/29 08:50:43;;;;;;;0.20;0.20;;;35.20;67.10;;;;;;4869670;29;20041;-84
2022/06/29 08:53:13;;;;;;;0.20;0.20;;;35.70;68.00;;;;;;4896511;29;20378;-84
2022/06/29 08:55:44;;;;;;;0.30;0.30;;;36.10;67.10;;;;;;4896368;29;20187;-84
2022/06/29 08:58:21;;;;;;;0.77;0.77;;;35.60;66.00;;;;;;4917228;29;20037;-83
2022/06/29 09:00:51;;;;;;;0.10;0.10;;;35.00;66.30;;;;;;4897940;29;20048;-86
2022/06/29 09:03:18;;;;;;;0.22;0.22;;;34.70;66.50;;;;;;4867032;29;20040;-86
2022/06/29 09:05:49;;;;;;;0.35;0.35;;;34.50;65.20;;;;;;4896097;29;20514;-86
2022/06/29 09:08:16;;;;;;;0.20;0.20;;;34.50;67.40;;;;;;4881825;29;20052;-86
2022/06/29 09:10:42;;;;;;;0.45;0.45;;;34.40;68.80;;;;;;4897015;29;20092;-86
2022/06/29 09:13:08;;;;;;;0.20;0.20;;;34.50;66.40;;;;;;4896820;29;20044;-86
2022/06/29 09:15:40;;;;;;;0.10;0.10;;;35.30;68.70;;;;;;4878818;29;20045;-87
2022/06/29 09:18:32;;;;;;;0.10;0.10;;;36.00;67.90;;;;;;4896223;29;20047;-87
2022/06/29 09:21:01;;;;;;;0.30;0.30;;;35.70;67.30;;;;;;4875829;29;20056;-86
2022/06/29 09:23:28;;;;;;;0.38;0.38;;;35.40;63.60;;;;;;4889143;29;20048;-86
2022/06/29 09:25:54;;;;;;;0.10;0.10;;;35.30;64.30;;;;;;4878391;29;20044;-87
2022/06/29 09:28:20;;;;;;;0.10;0.10;;;35.40;63.50;;;;;;4876344;29;20057;-87
2022/06/29 09:30:46;;;;;;;0.20;0.20;;;35.80;65.80;;;;;;4888805;29;20517;-87
2022/06/29 09:33:12;;;;;;;0.10;0.10;;;35.70;62.30;;;;;;4894730;29;20036;-86
2022/06/29 09:35:39;;;;;;;0.10;0.10;;;35.70;62.80;;;;;;4892187;29;20072;-86
2022/06/29 09:38:24;;;;;;;0.20;0.20;;;35.20;62.80;;;;;;4896979;29;20127;-86
2022/06/29 09:41:09;;;;;;;0.10;0.10;;;35.00;63.10;;;;;;4877510;29;20452;-86
2022/06/29 09:43:40;;;;;;;0.30;0.30;;;35.00;62.40;;;;;;4869815;29;20046;-86
2022/06/29 09:46:08;;;;;;;0.20;0.20;;;35.90;63.30;;;;;;4874319;29;20072;-87
2022/06/29 09:48:35;;;;;;;0.20;0.20;;;35.70;62.90;;;;;;4888190;29;20040;-87
2022/06/29 09:51:30;;;;;;;0.13;0.13;;;35.50;63.00;;;;;;4896982;29;20036;-87
2022/06/29 09:53:50;;;;;;;0.20;0.20;;;35.50;64.00;;;;;;4896783;29;20095;-86
2022/06/29 09:56:19;;;;;;;0.20;0.20;;;35.20;64.50;;;;;;4895519;29;20076;-86
2022/06/29 09:58:46;;;;;;;0.10;0.10;;;35.50;63.80;;;;;;4889121;29;20045;-86
2022/06/29 10:04:01;;;;;;;2.25;1.00;;;35.80;65.90;;;;;;4897006;29;20040;-86
2022/06/29 10:06:28;;;;;;;0.15;0.15;;;36.00;63.60;;;;;;4896739;29;20052;-87
2022/06/29 10:08:56;;;;;;;0.65;0.43;;;36.20;61.40;;;;;;4891937;29;20037;-87
2022/06/29 10:14:27;;;;;;;0.20;0.20;;;36.20;62.20;;;;;;4889498;29;20077;-87
2022/06/29 10:17:08;;;;;;;0.10;0.10;;;36.00;61.70;;;;;;4896598;29;20054;-87
2022/06/29 10:20:00;;;;;;;0.10;0.10;;;36.30;61.30;;;;;;4896882;29;20450;-87
2022/06/29 10:22:29;;;;;;;0.20;0.20;;;36.20;61.50;;;;;;4885508;29;20045;-87
2022/06/29 10:25:10;;;;;;;0.50;0.50;;;36.20;62.60;;;;;;4894053;29;20053;-86
2022/06/29 10:27:36;;;;;;;0.10;0.10;;;35.80;60.50;;;;;;4886931;29;20044;-85
2022/06/29 10:30:33;;;;;;;0.55;0.40;;;35.20;61.90;;;;;;4891873;29;20411;-85
2022/06/29 10:33:35;;;;;;;0.10;0.10;;;35.60;62.30;;;;;;4885458;29;20045;-85
2022/06/29 10:36:06;;;;;;;0.20;0.20;;;35.70;60.70;;;;;;4897875;29;20099;-85
2022/06/29 10:38:58;;;;;;;0.30;0.30;;;34.80;62.90;;;;;;4891886;29;20040;-85
2022/06/29 10:44:08;;;;;;;0.13;0.13;;;34.90;64.40;;;;;;4895162;29;20048;-85
2022/06/29 10:46:56;;;;;;;0.20;0.10;;;35.50;63.10;;;;;;4889935;29;20127;-85
2022/06/29 10:49:23;;;;;;;0.32;0.32;;;35.70;62.20;;;;;;4864003;29;20132;-85
2022/06/29 10:51:49;;;;;;;0.20;0.20;;;35.70;61.80;;;;;;4896506;29;20119;-85
2022/06/29 10:54:32;;;;;;;0.15;0.15;;;36.00;61.60;;;;;;4883189;29;20045;-85
2022/06/29 10:56:58;;;;;;;0.35;0.35;;;35.90;59.70;;;;;;4879693;29;20407;-86
2022/06/29 10:59:35;;;;;;;0.10;0.10;;;35.50;61.00;;;;;;4899597;29;20119;-87
2022/06/29 11:02:11;;;;;;;0.40;0.40;;;35.30;61.00;;;;;;4899175;29;20055;-86
2022/06/29 11:04:38;;;;;;;0.40;0.40;;;35.60;59.90;;;;;;4896844;29;20072;-86
2022/06/29 11:12:56;;;;;;;0.50;0.45;;;35.20;59.80;;;;;;4898679;29;20441;-84
2022/06/29 11:15:49;;;;;;;0.15;0.15;;;35.50;61.10;;;;;;4896375;29;20045;-84
2022/06/29 11:18:16;;;;;;;0.10;0.10;;;36.00;60.10;;;;;;4897651;29;20112;-83
2022/06/29 11:20:49;;;;;;;0.38;0.38;;;36.20;60.60;;;;;;4899040;29;20052;-83
2022/06/29 11:23:20;;;;;;;0.32;0.17;;;36.80;60.20;;;;;;4893950;29;20032;-84
2022/06/29 11:25:48;;;;;;;0.20;0.20;;;37.30;59.20;;;;;;4884994;29;20044;-84
2022/06/29 11:28:17;;;;;;;0.20;0.20;;;37.30;57.90;;;;;;4896440;29;20041;-84
2022/06/29 11:31:05;;;;;;;0.20;0.20;;;37.10;58.10;;;;;;4870821;29;20445;-83
2022/06/29 11:33:33;;;;;;;0.30;0.30;;;37.30;58.50;;;;;;4896101;29;20181;-83
2022/06/29 11:36:20;;;;;;;0.10;0.10;;;37.30;57.30;;;;;;4895942;29;20048;-83
2022/06/29 11:38:48;;;;;;;0.20;0.20;;;36.80;55.60;;;;;;4885099;29;20040;-83
2022/06/29 11:41:20;;;;;;;0.30;0.30;;;36.70;56.90;;;;;;4883002;29;20036;-83
2022/06/29 11:43:58;;;;;;;0.10;0.10;;;36.70;57.70;;;;;;4899132;29;20077;-84
2022/06/29 11:46:26;;;;;;;0.15;0.15;;;36.70;57.60;;;;;;4898975;29;20049;-86
2022/06/29 11:51:48;;;;;;;0.20;0.20;;;35.20;57.20;;;;;;4895515;29;20072;-87
2022/06/29 11:54:14;;;;;;;0.15;0.15;;;35.30;57.30;;;;;;4883142;29;20041;-87
2022/06/29 11:56:43;;;;;;;0.30;0.30;;;35.30;58.70;;;;;;4868245;29;20100;-86
2022/06/29 11:59:15;;;;;;;0.38;0.38;;;35.00;57.90;;;;;;4898166;29;20099;-86
2022/06/29 12:01:53;;;;;;;0.22;0.15;;;35.00;58.80;;;;;;4896673;29;20051;-86
2022/06/29 12:04:40;;;;;;;0.28;0.28;;;35.10;56.50;;;;;;4874598;29;20057;-87
2022/06/29 12:07:17;;;;;;;0.20;0.20;;;35.60;57.90;;;;;;4875289;29;20044;-86
2022/06/29 12:09:48;;;;;;;0.20;0.20;;;35.80;58.20;;;;;;4881130;29;20041;-87
2022/06/29 12:12:14;;;;;;;0.30;0.30;;;36.30;56.30;;;;;;4894441;29;20056;-86
2022/06/29 12:14:41;;;;;;;0.30;0.22;;;36.20;56.60;;;;;;4876883;29;20515;-86
2022/06/29 12:17:09;;;;;;;0.10;0.10;;;35.90;56.50;;;;;;4898089;29;20041;-86
2022/06/29 12:19:35;;;;;;;0.10;0.10;;;35.60;55.80;;;;;;4896889;29;20067;-85
2022/06/29 12:22:01;;;;;;;0.10;0.10;;;35.30;56.70;;;;;;4876732;29;20099;-85
2022/06/29 12:24:29;;;;;;;0.10;0.10;;;34.80;54.00;;;;;;4848420;29;20127;-85
2022/06/29 12:26:55;;;;;;;0.30;0.30;;;34.70;55.50;;;;;;4880511;29;20058;-85
2022/06/29 12:29:21;;;;;;;0.13;0.13;;;35.10;59.70;;;;;;4881204;29;20052;-84
2022/06/29 12:31:47;;;;;;;0.10;0.10;;;35.60;57.70;;;;;;4895260;29;20058;-85
2022/06/29 12:34:13;;;;;;;0.25;0.25;;;35.80;54.30;;;;;;4879466;29;20120;-85
2022/06/29 12:36:40;;;;;;;0.45;0.45;;;35.60;55.50;;;;;;4896333;29;20132;-85
2022/06/29 12:39:06;;;;;;;0.20;0.20;;;35.10;55.10;;;;;;4882306;29;20044;-85
2022/06/29 12:41:33;;;;;;;0.10;0.10;;;34.90;54.40;;;;;;4882227;29;20052;-85
2022/06/29 12:44:02;;;;;;;0.17;0.17;;;34.60;55.00;;;;;;4882363;29;20107;-85
2022/06/29 12:46:29;;;;;;;0.28;0.10;;;34.50;56.60;;;;;;4878078;29;20563;-85
2022/06/29 12:48:56;;;;;;;0.20;0.20;;;34.60;56.90;;;;;;4897502;29;20052;-85
2022/06/29 12:51:23;;;;;;;0.10;0.10;;;34.40;56.10;;;;;;4882022;29;20562;-85
2022/06/29 12:53:48;;;;;;;0.20;0.20;;;34.30;56.70;;;;;;4887096;29;20044;-85
2022/06/29 12:56:14;;;;;;;0.00;0.00;;;34.60;56.80;;;;;;4885886;29;20392;-85
2022/06/29 12:58:40;;;;;;;0.30;0.20;;;34.90;55.80;;;;;;4886839;29;20411;-85
2022/06/29 13:01:06;;;;;;;0.25;0.25;;;35.00;56.10;;;;;;4897202;29;20044;-85
2022/06/29 13:03:32;;;;;;;0.15;0.15;;;34.70;55.60;;;;;;4881734;29;20052;-84
2022/06/29 13:05:58;;;;;;;0.00;0.00;;;34.70;58.70;;;;;;4871869;29;20049;-85
2022/06/29 13:08:23;;;;;;;0.40;0.40;;;34.80;57.10;;;;;;4897827;29;20045;-85
2022/06/29 13:10:49;;;;;;;0.10;0.10;;;34.80;57.70;;;;;;4896302;29;20045;-86
2022/06/29 13:13:15;;;;;;;0.10;0.10;;;35.30;57.10;;;;;;4888913;29;20116;-86
2022/06/29 13:15:41;;;;;;;0.10;0.10;;;35.50;55.40;;;;;;4863930;29;20045;-86
2022/06/29 13:18:06;;;;;;;0.47;0.47;;;35.20;54.60;;;;;;4859817;29;20083;-86
2022/06/29 13:20:32;;;;;;;0.20;0.20;;;34.10;56.60;;;;;;4863298;29;20057;-86
2022/06/29 13:22:58;;;;;;;0.20;0.20;;;32.80;57.50;;;;;;4892911;29;20500;-85
2022/06/29 13:25:23;;;;;;;0.10;0.10;;;31.90;59.70;;;;;;4847928;29;20083;-86
2022/06/29 13:27:49;;;;;;;0.10;0.10;;;31.60;60.50;;;;;;4869223;29;20108;-84
2022/06/29 13:30:15;;;;;;;0.30;0.30;;;31.80;61.30;;;;;;4881418;29;20456;-85
2022/06/29 13:32:41;;;;;;;0.17;0.10;;;32.40;61.30;;;;;;4895677;29;20496;-84
2022/06/29 13:35:07;;;;;;;0.10;0.10;;;33.30;57.70;;;;;;4880588;29;20077;-85